Aeroporto :
LOGIN :

Iscrizione | Disclaimer

   EN    FR    IT 

 










Sommario :    VFR   VFR Marginale   IFR   IFR Intensivo   IFR Molto Intensivo
Visibilità : 
Base nubi : 
>= 8 km
>= 3000ft
5 / 8 km
1000 / 3000 ft
1500m / 5 km
500 / 1000 ft
800 / 1500m
200 / 500 ft
< 800m
< 200 ft
Simboli :   Temporali  Nebbia  Neve Forte  Precipitazioni Forti  Vento > 20 kt
SIGMETs :   Varie  Temporali  Ghiacco  Turbolenza  Onda orograficha  Ceneri Vulcaniche






- Altitudine del aeroporto : 574 ft
- Codice IATA : NDR


GMMW - Nador El Aroui

ULTIMO METAR :
  • 191100Z 36005KT 9999 SCT026 26/17 Q1019 NOSIG

METARs OBSOLETI :
  • 191000Z 05006KT 9999 SCT026 25/18 Q1019 NOSIG
  • 190900Z 06006KT 9999 BKN026 24/17 Q1019 NOSIG

TAF TAF GMMW
Valido dal 19 a 06 ore il 20 a 12 ore UTC


190500Z 1906/2012 02003KT 9999 FEW030 SCT100
PROB40 1903/1912 BKN009
PROB30
TEMPO 1906/1916 5000 A TSRA FEW033CB



MetMap, La meteo Aeronautica in un colpo d'occhio ! - Copyright ORBIFLY Dicembre 2007 - Disclaimer

ORBIFLY MET'MAP TEAM :

Programmazione e sviluppo : Alexandra Zaïnal
Concezione : Baudouin d'Aumeries
Aiuto per la programmazione : Marc-Olivier Méhu
Supporto tecnico e logistico : Manuel Goepfert
Aiuto per la traduzione : Arnaldo La Scala

Contatto : metmap@orbifly.com




FONTI E CREDITI :

   NOAA